createdAt,value
2023-02-25T00:01:12.014Z,95627.28
2023-02-25T00:04:03.228Z,95625.66
2023-02-25T00:06:52.835Z,95629.09
2023-02-25T00:09:42.065Z,95628.78
2023-02-25T00:12:31.639Z,95635.19
2023-02-25T00:15:21.111Z,95628.63
2023-02-25T00:18:10.386Z,95627.50
2023-02-25T00:21:01.916Z,95616.69
2023-02-25T00:23:53.794Z,95620.28
2023-02-25T00:26:43.371Z,95619.63
2023-02-25T00:29:33.204Z,95614.66
2023-02-25T00:32:24.844Z,95618.97
2023-02-25T00:35:14.208Z,95605.28
2023-02-25T00:38:15.725Z,95614.66
2023-02-25T00:41:12.922Z,95612.38
2023-02-25T00:44:03.465Z,95617.09
2023-02-25T00:46:54.227Z,95636.22
2023-02-25T00:49:43.981Z,95639.16
2023-02-25T00:52:34.884Z,95637.53
2023-02-25T00:55:31.004Z,95639.53
2023-02-25T00:58:21.431Z,95642.44
2023-02-25T01:01:19.237Z,95637.91
2023-02-25T01:04:10.118Z,95633.16
2023-02-25T01:07:02.748Z,95631.50
2023-02-25T01:09:56.852Z,95627.66
2023-02-25T01:12:48.477Z,95622.44
2023-02-25T01:15:38.345Z,95632.09
2023-02-25T01:18:28.017Z,95631.25
2023-02-25T01:21:19.059Z,95635.53
2023-02-25T01:24:12.819Z,95643.31
2023-02-25T01:27:04.439Z,95637.19
2023-02-25T01:29:55.759Z,95641.22
2023-02-25T01:32:45.055Z,95649.28
2023-02-25T01:35:39.213Z,95652.69
2023-02-25T01:38:30.434Z,95652.44
2023-02-25T01:41:20.440Z,95646.09
2023-02-25T01:44:14.250Z,95645.78
2023-02-25T01:47:07.366Z,95649.81
2023-02-25T01:49:57.415Z,95657.25
2023-02-25T01:52:47.229Z,95661.44
2023-02-25T01:55:37.116Z,95655.66
2023-02-25T01:58:27.207Z,95647.91
2023-02-25T02:01:22.096Z,95649.44
2023-02-25T02:04:16.532Z,95660.94
2023-02-25T02:07:06.481Z,95658.47
2023-02-25T02:09:57.372Z,95663.41
2023-02-25T02:12:48.069Z,95648.84
2023-02-25T02:15:40.833Z,95651.22
2023-02-25T02:18:34.707Z,95656.97
2023-02-25T02:21:55.112Z,95648.06
2023-02-25T02:25:22.005Z,95655.91
2023-02-25T02:28:41.290Z,95659.47
2023-02-25T02:31:46.146Z,95663.88
2023-02-25T02:34:43.643Z,95654.94
2023-02-25T02:37:39.244Z,95661.06
2023-02-25T02:40:40.572Z,95667.69
2023-02-25T02:43:39.462Z,95664.19
2023-02-25T02:46:30.966Z,95662.91
2023-02-25T02:49:25.417Z,95656.06
2023-02-25T02:52:20.021Z,95660.91
2023-02-25T02:55:13.569Z,95668.13
2023-02-25T02:58:07.263Z,95678.94
2023-02-25T03:01:02.645Z,95678.25
2023-02-25T03:03:55.066Z,95672.41
2023-02-25T03:07:09.664Z,95669.75
2023-02-25T03:10:03.756Z,95673.75
2023-02-25T03:12:56.892Z,95673.47
2023-02-25T03:15:46.752Z,95678.03
2023-02-25T03:18:39.404Z,95681.78
2023-02-25T03:21:34.352Z,95680.53
2023-02-25T03:24:30.902Z,95690.84
2023-02-25T03:27:29.593Z,95685.84
2023-02-25T03:30:29.149Z,95689.31
2023-02-25T03:33:23.595Z,95680.59
2023-02-25T03:36:15.462Z,95683.03
2023-02-25T03:39:09.202Z,95688.97
2023-02-25T03:42:02.269Z,95697.75
2023-02-25T03:44:55.428Z,95702.25
2023-02-25T03:47:45.632Z,95695.34
2023-02-25T03:50:39.724Z,95692.72
2023-02-25T03:53:35.052Z,95704.19
2023-02-25T03:57:14.536Z,95708.38
2023-02-25T04:00:15.907Z,95721.41
2023-02-25T04:03:06.638Z,95719.59
2023-02-25T04:05:56.697Z,95708.72
2023-02-25T04:08:46.383Z,95705.00
2023-02-25T04:11:36.345Z,95716.16
2023-02-25T04:14:27.596Z,95724.59
2023-02-25T04:17:17.867Z,95724.06
2023-02-25T04:20:08.716Z,95736.78
2023-02-25T04:22:59.371Z,95732.00
2023-02-25T04:25:49.234Z,95733.59
2023-02-25T04:28:38.839Z,95738.84
2023-02-25T04:31:30.552Z,95746.22
2023-02-25T04:34:21.066Z,95744.81
2023-02-25T04:37:10.765Z,95748.25
2023-02-25T04:40:05.299Z,95745.25
2023-02-25T04:42:55.227Z,95743.91
2023-02-25T04:45:49.717Z,95744.66
2023-02-25T04:48:42.083Z,95740.44
2023-02-25T04:51:31.637Z,95745.16
2023-02-25T04:54:21.847Z,95744.88
2023-02-25T05:02:23.290Z,95738.72
2023-02-25T05:05:14.515Z,95745.34
2023-02-25T05:08:05.422Z,95750.88
2023-02-25T05:11:01.258Z,95753.25
2023-02-25T05:13:51.153Z,95748.59
2023-02-25T05:16:40.925Z,95759.69
2023-02-25T05:19:30.513Z,95751.94
2023-02-25T05:22:23.150Z,95756.47
2023-02-25T05:25:13.172Z,95760.47
2023-02-25T05:28:04.107Z,95773.22
2023-02-25T05:30:55.696Z,95776.13
2023-02-25T05:33:46.396Z,95781.28
2023-02-25T05:36:36.276Z,95785.75
2023-02-25T05:39:27.687Z,95783.31
2023-02-25T05:42:29.951Z,95774.56
2023-02-25T05:45:26.913Z,95774.63
2023-02-25T05:48:17.084Z,95778.81
2023-02-25T05:51:08.632Z,95774.34
2023-02-25T05:53:58.817Z,95778.66
2023-02-25T05:56:52.803Z,95775.69
2023-02-25T05:59:42.585Z,95786.59
2023-02-25T06:02:34.473Z,95780.50
2023-02-25T06:05:24.788Z,95787.41
2023-02-25T06:08:14.796Z,95792.69
2023-02-25T06:11:07.955Z,95798.28
2023-02-25T06:14:01.611Z,95798.78
2023-02-25T06:16:51.943Z,95795.88
2023-02-25T06:19:42.104Z,95809.16
2023-02-25T06:22:31.798Z,95816.28
2023-02-25T06:25:21.674Z,95817.63
2023-02-25T06:28:12.355Z,95819.22
2023-02-25T06:31:04.327Z,95820.28
2023-02-25T06:34:01.445Z,95823.22
2023-02-25T06:36:51.488Z,95822.47
2023-02-25T06:39:43.383Z,95827.22
2023-02-25T06:42:32.943Z,95830.16
2023-02-25T06:45:24.381Z,95834.66
2023-02-25T06:48:15.587Z,95833.31
2023-02-25T06:51:09.447Z,95836.78
2023-02-25T06:53:59.975Z,95839.69
2023-02-25T06:56:50.463Z,95837.84
2023-02-25T06:59:39.942Z,95840.19
2023-02-25T07:02:29.470Z,95845.75
2023-02-25T07:05:20.347Z,95840.38
2023-02-25T07:08:09.758Z,95839.88
2023-02-25T07:11:14.573Z,95831.66
2023-02-25T07:14:05.533Z,95843.00
2023-02-25T07:16:55.091Z,95838.72
2023-02-25T07:19:45.213Z,95835.78
2023-02-25T07:22:36.003Z,95832.56
2023-02-25T07:25:26.129Z,95842.38
2023-02-25T07:28:16.598Z,95849.75
2023-02-25T07:31:11.727Z,95847.84
2023-02-25T07:34:03.863Z,95838.06
2023-02-25T07:36:53.504Z,95850.81
2023-02-25T07:39:46.918Z,95848.13
2023-02-25T07:42:37.282Z,95847.59
2023-02-25T07:45:28.732Z,95842.63
2023-02-25T07:48:18.395Z,95843.97
2023-02-25T07:51:09.188Z,95839.22
2023-02-25T07:53:59.389Z,95843.00
2023-02-25T07:56:52.316Z,95838.22
2023-02-25T07:59:41.994Z,95851.47
2023-02-25T08:02:31.617Z,95840.81
2023-02-25T08:05:24.256Z,95845.53
2023-02-25T08:08:14.323Z,95840.69
2023-02-25T08:11:08.013Z,95838.00
2023-02-25T08:14:01.889Z,95841.19
2023-02-25T08:16:53.544Z,95831.06
2023-02-25T08:19:43.698Z,95838.94
2023-02-25T08:22:33.377Z,95840.00
2023-02-25T08:25:23.474Z,95829.34
2023-02-25T08:28:15.077Z,95821.44
2023-02-25T08:31:08.692Z,95834.25
2023-02-25T08:33:59.716Z,95833.91
2023-02-25T08:36:50.290Z,95839.13
2023-02-25T08:39:43.131Z,95840.75
2023-02-25T08:42:36.174Z,95846.25
2023-02-25T08:45:26.287Z,95851.75
2023-02-25T08:48:17.397Z,95851.94
2023-02-25T08:51:08.850Z,95855.66
2023-02-25T08:53:59.005Z,95854.56
2023-02-25T08:56:49.286Z,95850.25
2023-02-25T08:59:40.077Z,95856.53
2023-02-25T09:02:30.090Z,95854.59
2023-02-25T09:05:21.750Z,95855.44
2023-02-25T09:08:11.368Z,95852.06
2023-02-25T09:11:01.265Z,95850.13
2023-02-25T09:13:51.274Z,95851.88
2023-02-25T09:16:41.018Z,95853.97
2023-02-25T09:19:31.139Z,95850.72
2023-02-25T09:22:22.672Z,95847.69
2023-02-25T09:25:14.225Z,95854.22
2023-02-25T09:28:04.337Z,95847.53
2023-02-25T09:30:54.591Z,95846.25
2023-02-25T09:33:44.521Z,95847.94
2023-02-25T09:36:34.907Z,95834.25
2023-02-25T09:39:25.866Z,95840.13
2023-02-25T09:42:18.699Z,95837.44
2023-02-25T09:45:14.915Z,95850.59
2023-02-25T09:48:07.428Z,95849.69
2023-02-25T09:51:10.995Z,95846.13
2023-02-25T09:54:22.349Z,95842.88
2023-02-25T09:57:25.467Z,95839.78
2023-02-25T10:00:19.151Z,95848.59
2023-02-25T10:03:14.268Z,95849.34
2023-02-25T10:06:05.391Z,95844.47
2023-02-25T10:09:01.407Z,95850.06
2023-02-25T10:11:53.716Z,95840.25
2023-02-25T10:14:57.456Z,95840.41
2023-02-25T10:18:03.193Z,95837.88
2023-02-25T10:21:08.023Z,95841.56
2023-02-25T10:24:10.966Z,95837.03
2023-02-25T10:27:05.810Z,95833.78
2023-02-25T10:29:58.819Z,95839.47
2023-02-25T10:32:49.208Z,95832.28
2023-02-25T10:35:40.494Z,95831.13
2023-02-25T10:38:29.970Z,95830.94
2023-02-25T10:41:23.078Z,95826.16
2023-02-25T10:44:14.640Z,95825.28
2023-02-25T10:47:06.455Z,95818.88
2023-02-25T10:50:14.290Z,95822.59
2023-02-25T10:53:05.704Z,95830.25
2023-02-25T10:55:55.883Z,95827.94
2023-02-25T10:58:48.216Z,95825.28
2023-02-25T11:01:40.446Z,95820.41
2023-02-25T11:04:34.827Z,95809.47
2023-02-25T11:07:27.108Z,95818.00
2023-02-25T11:10:18.585Z,95804.91
2023-02-25T11:13:10.565Z,95807.75
2023-02-25T11:16:02.314Z,95799.44
2023-02-25T11:18:54.685Z,95805.72
2023-02-25T11:21:45.648Z,95806.16
2023-02-25T11:24:36.448Z,95805.22
2023-02-25T11:27:38.993Z,95796.78
2023-02-25T11:30:33.703Z,95797.81
2023-02-25T11:33:25.834Z,95794.22
2023-02-25T11:36:15.169Z,95792.63
2023-02-25T11:39:16.793Z,95791.28
2023-02-25T11:42:24.590Z,95781.56
2023-02-25T11:45:18.791Z,95783.66
2023-02-25T11:48:18.945Z,95785.25
2023-02-25T11:51:18.758Z,95776.53
2023-02-25T11:54:25.313Z,95771.81
2023-02-25T11:57:18.212Z,95768.47
2023-02-25T12:00:22.799Z,95766.13
2023-02-25T12:03:24.898Z,95768.47
2023-02-25T12:06:29.951Z,95760.13
2023-02-25T12:09:44.635Z,95762.28
2023-02-25T12:12:57.275Z,95763.56
2023-02-25T12:16:19.009Z,95764.28
2023-02-25T12:19:32.836Z,95769.97
2023-02-25T12:22:48.946Z,95766.00
2023-02-25T12:25:45.412Z,95758.09
2023-02-25T12:28:51.994Z,95762.28
2023-02-25T12:32:11.196Z,95765.19
2023-02-25T12:35:44.524Z,95755.03
2023-02-25T12:39:01.832Z,95761.97
2023-02-25T12:42:01.678Z,95767.28
2023-02-25T12:45:03.580Z,95763.38
2023-02-25T12:48:11.648Z,95770.88
2023-02-25T12:51:16.721Z,95769.81
2023-02-25T12:54:16.114Z,95771.41
2023-02-25T12:57:22.131Z,95767.97
2023-02-25T13:00:43.472Z,95771.06
2023-02-25T13:03:41.268Z,95774.97
2023-02-25T13:06:43.618Z,95773.63
2023-02-25T13:10:08.587Z,95767.78
2023-02-25T13:13:07.642Z,95752.25
2023-02-25T13:16:04.695Z,95757.69
2023-02-25T13:19:02.838Z,95760.25
2023-02-25T13:22:05.484Z,95756.53
2023-02-25T13:25:01.474Z,95763.66
2023-02-25T13:28:06.216Z,95754.94
2023-02-25T13:30:59.467Z,95750.63
2023-02-25T13:34:01.552Z,95751.78
2023-02-25T13:37:03.304Z,95756.88
2023-02-25T13:40:01.731Z,95746.13
2023-02-25T13:43:01.509Z,95759.00
2023-02-25T13:46:08.132Z,95746.84
2023-02-25T13:49:10.310Z,95744.28
2023-02-25T13:52:09.876Z,95741.16
2023-02-25T13:55:23.899Z,95735.03
2023-02-25T13:58:30.492Z,95744.72
2023-02-25T14:01:52.846Z,95738.97
2023-02-25T14:05:17.168Z,95739.31
2023-02-25T14:08:26.783Z,95734.56
2023-02-25T14:11:29.920Z,95743.78
2023-02-25T14:14:33.005Z,95743.41
2023-02-25T14:17:36.564Z,95757.19
2023-02-25T14:20:39.061Z,95767.03
2023-02-25T14:23:46.429Z,95762.59
2023-02-25T14:26:42.567Z,95760.78
2023-02-25T14:29:44.350Z,95758.63
2023-02-25T14:32:50.178Z,95766.75
2023-02-25T14:36:02.380Z,95770.34
2023-02-25T14:39:06.088Z,95771.41
2023-02-25T14:42:02.930Z,95772.22
2023-02-25T14:44:56.879Z,95768.75
2023-02-25T14:47:54.911Z,95771.50
2023-02-25T14:50:48.062Z,95778.59
2023-02-25T14:53:51.589Z,95767.75
2023-02-25T14:56:50.070Z,95770.72
2023-02-25T14:59:59.896Z,95775.13
2023-02-25T15:03:22.890Z,95767.63
2023-02-25T15:06:24.648Z,95778.06
2023-02-25T15:09:33.294Z,95776.53
2023-02-25T15:12:37.188Z,95781.59
2023-02-25T15:15:36.551Z,95787.34
2023-02-25T15:18:54.389Z,95780.91
2023-02-25T15:21:47.170Z,95791.16
2023-02-25T15:24:41.776Z,95792.78
2023-02-25T15:27:49.861Z,95791.63
2023-02-25T15:31:09.661Z,95793.22
2023-02-25T15:34:44.895Z,95793.94
2023-02-25T15:37:37.321Z,95800.25
2023-02-25T15:40:51.139Z,95795.69
2023-02-25T15:43:43.766Z,95805.47
2023-02-25T15:46:42.799Z,95803.31
2023-02-25T15:49:34.773Z,95799.13
2023-02-25T15:52:57.935Z,95809.88
2023-02-25T15:55:47.983Z,95807.81
2023-02-25T15:58:52.889Z,95817.47
2023-02-25T16:01:44.026Z,95815.91
2023-02-25T16:04:46.679Z,95822.94
2023-02-25T16:07:37.795Z,95828.56
2023-02-25T16:10:35.055Z,95824.84
2023-02-25T16:13:28.811Z,95837.13
2023-02-25T16:16:18.847Z,95850.16
2023-02-25T16:19:12.224Z,95861.50
2023-02-25T16:22:03.780Z,95881.28
2023-02-25T16:24:54.712Z,95889.88
2023-02-25T16:27:54.585Z,95906.75
2023-02-25T16:30:48.548Z,95901.50
2023-02-25T16:33:46.210Z,95903.69
2023-02-25T16:36:38.481Z,95910.06
2023-02-25T16:39:28.240Z,95914.56
2023-02-25T16:42:19.733Z,95908.47
2023-02-25T16:45:25.470Z,95919.31
2023-02-25T16:48:19.861Z,95923.63
2023-02-25T16:51:11.595Z,95931.53
2023-02-25T16:54:06.559Z,95945.34
2023-02-25T16:57:00.141Z,95939.00
2023-02-25T16:59:51.177Z,95928.13
2023-02-25T17:02:48.032Z,95953.34
2023-02-25T17:05:39.769Z,95949.66
2023-02-25T17:08:29.904Z,95956.31
2023-02-25T17:11:22.896Z,95959.47
2023-02-25T17:14:13.033Z,95966.09
2023-02-25T17:17:02.893Z,95959.19
2023-02-25T17:19:54.061Z,95957.63
2023-02-25T17:22:46.302Z,95955.19
2023-02-25T17:25:40.000Z,95964.69
2023-02-25T17:28:31.318Z,95975.03
2023-02-25T17:31:27.282Z,95975.56
2023-02-25T17:34:19.255Z,95986.47
2023-02-25T17:37:13.650Z,95989.41
2023-02-25T17:40:04.796Z,95993.34
2023-02-25T17:43:18.943Z,95988.88
2023-02-25T17:46:18.602Z,95992.31
2023-02-25T17:49:21.560Z,95988.34
2023-02-25T17:52:20.448Z,95984.09
2023-02-25T17:55:23.638Z,95985.91
2023-02-25T17:58:23.885Z,95985.66
2023-02-25T18:01:25.826Z,95989.91
2023-02-25T18:04:25.376Z,96002.66
2023-02-25T18:07:32.797Z,96008.47
2023-02-25T18:10:49.966Z,96007.94
2023-02-25T18:13:40.160Z,96011.66
2023-02-25T18:16:45.090Z,96015.63
2023-02-25T18:19:39.479Z,96015.34
2023-02-25T18:22:33.969Z,96007.94
2023-02-25T18:25:31.733Z,96025.88
2023-02-25T18:28:23.119Z,96016.88
2023-02-25T18:31:14.841Z,96019.50
2023-02-25T18:34:04.827Z,96022.63
2023-02-25T18:36:54.762Z,96023.75
2023-02-25T18:39:46.579Z,96020.56
2023-02-25T18:42:36.004Z,96028.00
2023-02-25T18:45:27.065Z,96033.03
2023-02-25T18:48:17.868Z,96033.31
2023-02-25T18:51:12.872Z,96036.22
2023-02-25T18:54:02.236Z,96040.94
2023-02-25T18:56:53.559Z,96040.16
2023-02-25T18:59:43.442Z,96040.66
2023-02-25T19:02:34.581Z,96041.19
2023-02-25T19:05:25.691Z,96036.44
2023-02-25T19:08:16.858Z,96033.28
2023-02-25T19:11:07.512Z,96043.88
2023-02-25T19:13:59.312Z,96047.56
2023-02-25T19:16:52.360Z,96040.16
2023-02-25T19:19:46.779Z,96046.28
2023-02-25T19:22:37.586Z,96046.00
2023-02-25T19:25:29.332Z,96045.44
2023-02-25T19:28:19.066Z,96054.41
2023-02-25T19:31:09.979Z,96051.78
2023-02-25T19:34:00.113Z,96050.47
2023-02-25T19:36:49.972Z,96056.28
2023-02-25T19:39:39.716Z,96050.47
2023-02-25T19:42:30.347Z,96057.06
2023-02-25T19:45:22.486Z,96055.00
2023-02-25T19:48:13.911Z,96060.00
2023-02-25T19:51:07.297Z,96054.97
2023-02-25T19:53:57.271Z,96056.06
2023-02-25T19:56:46.804Z,96060.78
2023-02-25T19:59:36.488Z,96065.53
2023-02-25T20:02:26.398Z,96060.50
2023-02-25T20:05:17.846Z,96069.75
2023-02-25T20:08:17.323Z,96065.94
2023-02-25T20:11:10.178Z,96073.91
2023-02-25T20:14:02.008Z,96068.63
2023-02-25T20:16:52.219Z,96071.28
2023-02-25T20:19:51.413Z,96073.38
2023-02-25T20:22:43.548Z,96068.66
2023-02-25T20:25:33.641Z,96075.53
2023-02-25T20:28:24.442Z,96077.03
2023-02-25T20:31:15.805Z,96075.97
2023-02-25T20:34:14.578Z,96071.69
2023-02-25T20:37:07.202Z,96085.19
2023-02-25T20:40:00.179Z,96078.59
2023-02-25T20:42:50.153Z,96084.44
2023-02-25T20:45:40.790Z,96084.47
2023-02-25T20:48:32.276Z,96075.28
2023-02-25T20:51:22.580Z,96078.97
2023-02-25T20:54:12.598Z,96088.78
2023-02-25T20:57:04.642Z,96085.69
2023-02-25T20:59:55.161Z,96083.03
2023-02-25T21:02:45.074Z,96094.22
2023-02-25T21:05:35.126Z,96099.75
2023-02-25T21:08:25.034Z,96102.22
2023-02-25T21:11:15.408Z,96108.53
2023-02-25T21:14:10.540Z,96109.03
2023-02-25T21:17:01.446Z,96109.53
2023-02-25T21:19:52.845Z,96114.31
2023-02-25T21:22:42.887Z,96108.97
2023-02-25T21:25:34.047Z,96111.72
2023-02-25T21:28:24.216Z,96107.53
2023-02-25T21:31:17.519Z,96112.38
2023-02-25T21:34:09.370Z,96122.97
2023-02-25T21:36:59.852Z,96112.69
2023-02-25T21:39:49.629Z,96124.41
2023-02-25T21:42:39.417Z,96113.56
2023-02-25T21:45:29.690Z,96120.13
2023-02-25T21:48:21.240Z,96118.03
2023-02-25T21:51:16.541Z,96119.97
2023-02-25T21:54:06.541Z,96121.41
2023-02-25T21:56:56.308Z,96120.44
2023-02-25T21:59:46.500Z,96127.41
2023-02-25T22:02:36.180Z,96131.09
2023-02-25T22:05:27.850Z,96129.47
2023-02-25T22:08:17.637Z,96125.16
2023-02-25T22:11:08.193Z,96134.75
2023-02-25T22:13:57.605Z,96132.66
2023-02-25T22:16:47.491Z,96133.59
2023-02-25T22:19:38.052Z,96133.94
2023-02-25T22:22:29.467Z,96132.63
2023-02-25T22:25:19.986Z,96136.31
2023-02-25T22:28:09.781Z,96135.22
2023-02-25T22:30:59.932Z,96142.47
2023-02-25T22:33:52.202Z,96132.16
2023-02-25T22:36:42.432Z,96135.34
2023-02-25T22:39:34.001Z,96136.13
2023-02-25T22:42:24.082Z,96142.06
2023-02-25T22:45:14.276Z,96146.97
2023-02-25T22:48:03.958Z,96148.13
2023-02-25T22:50:53.541Z,96151.88
2023-02-25T22:53:43.314Z,96143.38
2023-02-25T22:56:35.207Z,96148.53
2023-02-25T22:59:25.956Z,96148.75
2023-02-25T23:02:15.740Z,96154.00
2023-02-25T23:05:06.226Z,96149.41
2023-02-25T23:07:56.318Z,96157.94
2023-02-25T23:10:46.435Z,96140.31
2023-02-25T23:13:38.134Z,96151.13
2023-02-25T23:16:31.528Z,96142.56
2023-02-25T23:19:21.869Z,96149.22
2023-02-25T23:22:18.650Z,96153.72
2023-02-25T23:25:10.571Z,96151.72
2023-02-25T23:28:00.564Z,96154.00
2023-02-25T23:30:54.658Z,96160.88
2023-02-25T23:33:44.609Z,96160.50
2023-02-25T23:36:34.767Z,96159.69
2023-02-25T23:39:25.024Z,96159.75
2023-02-25T23:42:15.063Z,96163.53
2023-02-25T23:45:07.140Z,96165.31
2023-02-25T23:47:58.302Z,96166.44
2023-02-25T23:50:48.119Z,96169.19
2023-02-25T23:53:37.906Z,96165.06
2023-02-25T23:56:28.488Z,96174.16
2023-02-25T23:59:18.686Z,96177.63
